Time;durP1;ratioP1;P1;durP2;ratioP2;P2;SDS_P1;SDS_P2;PMS_P1;PMS_P2;Temp;Humidity;BMP_temperature;BMP_pressure;BME280_temperature;BME280_humidity;BME280_pressure;Samples;Min_cycle;Max_cycle;Signal;HPM_P1;HPM_P2
2022/04/07 00:01:30;;;;;;;4.47;1.90;;;11.20;99.90;;;;;;6245651;23;20012;-76
2022/04/07 00:03:55;;;;;;;5.28;2.50;;;11.20;99.90;;;;;;6246676;23;20075;-76
2022/04/07 00:06:21;;;;;;;4.45;2.55;;;11.10;99.90;;;;;;6246481;23;20452;-76
2022/04/07 00:08:47;;;;;;;4.90;2.50;;;11.20;99.90;;;;;;6246072;23;20073;-77
2022/04/07 00:11:13;;;;;;;5.20;2.72;;;11.20;99.90;;;;;;6245344;23;19996;-76
2022/04/07 00:13:39;;;;;;;3.55;2.47;;;11.10;99.90;;;;;;6244915;23;20011;-76
2022/04/07 00:16:06;;;;;;;2.97;2.38;;;11.20;99.90;;;;;;6246329;22;20012;-75
2022/04/07 00:18:32;;;;;;;3.65;2.22;;;11.20;99.90;;;;;;6246347;23;20050;-76
2022/04/07 00:20:59;;;;;;;4.97;2.40;;;11.30;99.90;;;;;;6246699;23;20357;-76
2022/04/07 00:23:25;;;;;;;8.40;2.22;;;11.20;99.90;;;;;;6245271;22;20004;-76
2022/04/07 00:25:51;;;;;;;4.03;2.63;;;11.20;99.90;;;;;;6244848;22;20322;-77
2022/04/07 00:28:17;;;;;;;6.22;2.13;;;11.20;99.90;;;;;;6246376;23;20075;-76
2022/04/07 00:30:44;;;;;;;2.13;1.88;;;11.20;99.90;;;;;;6245980;23;20002;-76
2022/04/07 00:33:10;;;;;;;4.03;2.33;;;11.20;99.90;;;;;;6246349;22;20031;-76
2022/04/07 00:35:36;;;;;;;6.18;2.28;;;11.20;99.90;;;;;;6246003;22;19996;-77
2022/04/07 00:38:03;;;;;;;5.53;2.67;;;11.20;99.90;;;;;;6246020;23;20014;-77
2022/04/07 00:40:29;;;;;;;5.35;2.30;;;11.30;99.90;;;;;;6245949;22;19997;-77
2022/04/07 00:42:55;;;;;;;6.55;2.40;;;11.20;99.90;;;;;;6246551;22;20004;-77
2022/04/07 00:45:23;;;;;;;8.30;2.80;;;11.10;99.90;;;;;;6246451;23;20001;-78
2022/04/07 00:47:50;;;;;;;6.95;2.88;;;11.20;99.90;;;;;;6246614;22;20007;-77
2022/04/07 00:50:17;;;;;;;8.07;3.38;;;11.20;99.90;;;;;;6244542;23;20429;-77
2022/04/07 00:52:55;;;;;;;8.82;2.38;;;11.10;99.90;;;;;;6246168;22;20060;-76
2022/04/07 00:55:22;;;;;;;7.68;2.10;;;11.10;99.90;;;;;;6244081;22;20007;-76
2022/04/07 00:57:48;;;;;;;11.25;2.70;;;11.10;99.90;;;;;;6246043;22;20000;-76
2022/04/07 01:00:15;;;;;;;8.80;2.33;;;11.10;99.90;;;;;;6245858;22;20004;-76
2022/04/07 01:02:41;;;;;;;8.30;2.17;;;11.10;99.90;;;;;;6246019;22;20027;-76
2022/04/07 01:05:09;;;;;;;5.28;2.28;;;11.10;99.90;;;;;;6245617;22;20329;-76
2022/04/07 01:07:39;;;;;;;8.93;2.15;;;11.20;99.90;;;;;;6245222;22;20602;-77
2022/04/07 01:10:09;;;;;;;9.38;3.05;;;11.20;99.90;;;;;;6246197;22;19996;-79
2022/04/07 01:12:36;;;;;;;5.60;2.67;;;11.20;99.90;;;;;;6244809;22;19996;-79
2022/04/07 01:15:05;;;;;;;7.15;3.13;;;11.20;99.90;;;;;;6246734;22;20004;-80
2022/04/07 01:17:31;;;;;;;6.65;3.30;;;11.20;99.90;;;;;;6246145;22;20055;-80
2022/04/07 01:19:57;;;;;;;9.35;2.90;;;11.20;99.90;;;;;;6246021;22;20118;-80
2022/04/07 01:22:23;;;;;;;6.55;3.38;;;11.20;99.90;;;;;;6245253;23;20047;-80
2022/04/07 01:24:49;;;;;;;10.68;3.55;;;11.20;99.90;;;;;;6245465;22;20410;-79
2022/04/07 01:27:16;;;;;;;8.52;2.80;;;11.20;99.90;;;;;;6244701;23;20079;-79
2022/04/07 01:29:43;;;;;;;4.88;2.92;;;11.20;99.90;;;;;;6245979;22;20000;-79
2022/04/07 01:32:19;;;;;;;4.90;2.80;;;11.20;99.90;;;;;;6245209;22;20059;-77
2022/04/07 01:34:45;;;;;;;6.82;3.00;;;11.10;99.90;;;;;;6246008;22;20046;-79
2022/04/07 01:37:12;;;;;;;6.30;2.80;;;11.20;99.90;;;;;;6269449;22;20008;-80
2022/04/07 01:39:41;;;;;;;7.55;2.63;;;11.20;99.90;;;;;;6245396;22;20003;-80
2022/04/07 01:42:13;;;;;;;6.78;2.65;;;11.20;99.90;;;;;;6244742;22;20012;-79
2022/04/07 01:44:44;;;;;;;5.68;2.55;;;11.20;99.90;;;;;;6246027;22;20076;-78
2022/04/07 01:47:13;;;;;;;7.68;2.80;;;11.20;99.90;;;;;;6245690;22;20107;-78
2022/04/07 01:49:40;;;;;;;9.32;2.17;;;11.20;99.90;;;;;;6245942;22;20000;-78
2022/04/07 01:52:07;;;;;;;7.22;2.95;;;11.20;99.90;;;;;;6245430;22;20008;-79
2022/04/07 01:54:34;;;;;;;8.52;2.83;;;11.10;99.90;;;;;;6245817;22;20071;-79
2022/04/07 01:57:01;;;;;;;8.18;2.65;;;11.20;99.90;;;;;;6245751;23;20000;-79
2022/04/07 01:59:27;;;;;;;6.82;3.00;;;11.10;99.90;;;;;;6245273;22;20037;-81
2022/04/07 02:01:53;;;;;;;10.02;3.10;;;11.00;99.90;;;;;;6244647;22;20012;-80
2022/04/07 02:04:19;;;;;;;7.82;3.35;;;11.10;99.90;;;;;;6245316;23;20015;-82
2022/04/07 02:06:45;;;;;;;7.82;2.50;;;11.10;99.90;;;;;;6245411;23;20034;-82
2022/04/07 02:09:10;;;;;;;9.80;3.33;;;11.10;99.90;;;;;;6245511;23;20027;-81
2022/04/07 02:11:36;;;;;;;6.47;2.20;;;11.10;99.90;;;;;;6245227;23;20001;-81
2022/04/07 02:14:02;;;;;;;4.22;2.33;;;11.10;99.90;;;;;;6245407;23;20004;-79
2022/04/07 02:16:30;;;;;;;9.50;2.58;;;11.10;99.90;;;;;;6245818;23;19996;-80
2022/04/07 02:18:56;;;;;;;9.20;2.85;;;11.10;99.90;;;;;;6245683;22;20004;-79
2022/04/07 02:21:21;;;;;;;7.40;2.05;;;11.20;99.90;;;;;;6245338;22;20434;-79
2022/04/07 02:23:47;;;;;;;6.28;2.55;;;11.20;99.90;;;;;;6245624;23;20000;-78
2022/04/07 02:26:17;;;;;;;5.18;2.38;;;11.20;99.90;;;;;;6245590;23;20011;-78
2022/04/07 02:28:43;;;;;;;9.85;2.38;;;11.20;99.90;;;;;;6245795;22;20056;-78
2022/04/07 02:31:10;;;;;;;6.28;2.03;;;11.20;99.90;;;;;;6245813;22;20007;-78
2022/04/07 02:33:36;;;;;;;9.25;2.35;;;11.20;99.90;;;;;;6245393;22;20422;-77
2022/04/07 02:36:06;;;;;;;6.65;2.65;;;11.20;99.90;;;;;;6243412;23;19996;-77
2022/04/07 02:38:34;;;;;;;6.78;1.95;;;11.20;99.90;;;;;;6245542;22;20380;-78
2022/04/07 02:40:59;;;;;;;10.50;2.28;;;11.10;99.90;;;;;;6245617;22;20035;-77
2022/04/07 02:43:25;;;;;;;6.90;2.03;;;11.20;99.90;;;;;;6245243;23;20453;-77
2022/04/07 02:45:51;;;;;;;7.75;2.25;;;11.20;99.90;;;;;;6245629;23;20024;-77
2022/04/07 02:48:17;;;;;;;9.43;2.20;;;11.20;99.90;;;;;;6245238;22;19996;-76
2022/04/07 02:50:43;;;;;;;5.65;2.25;;;11.10;99.90;;;;;;6245767;22;20436;-76
2022/04/07 02:53:09;;;;;;;8.88;2.30;;;11.10;99.90;;;;;;6245763;22;20012;-76
2022/04/07 02:55:35;;;;;;;2.83;1.73;;;11.10;99.90;;;;;;6245123;22;20324;-77
2022/04/07 02:58:01;;;;;;;7.70;1.92;;;11.20;99.90;;;;;;6250254;22;20011;-77
2022/04/07 03:00:27;;;;;;;6.18;1.90;;;11.20;99.90;;;;;;6274586;22;20495;-76
2022/04/07 03:02:53;;;;;;;4.65;2.15;;;11.20;99.90;;;;;;6247755;22;20072;-76
2022/04/07 03:05:19;;;;;;;7.18;2.22;;;11.30;99.90;;;;;;6246954;23;20024;-76
2022/04/07 03:07:44;;;;;;;7.40;2.10;;;11.30;99.90;;;;;;6247493;23;20007;-76
2022/04/07 03:10:11;;;;;;;9.02;2.65;;;11.30;99.90;;;;;;6247281;23;19996;-76
2022/04/07 03:12:37;;;;;;;8.63;2.10;;;11.30;99.90;;;;;;6246648;22;20001;-76
2022/04/07 03:15:04;;;;;;;6.50;2.17;;;11.30;99.90;;;;;;6246593;22;20008;-76
2022/04/07 03:17:31;;;;;;;12.32;2.97;;;11.20;99.90;;;;;;6247371;22;20027;-76
2022/04/07 03:19:57;;;;;;;7.45;2.05;;;11.30;99.90;;;;;;6246143;22;20425;-76
2022/04/07 03:22:23;;;;;;;6.22;2.22;;;11.30;99.90;;;;;;6245679;23;20096;-76
2022/04/07 03:24:48;;;;;;;11.88;2.33;;;11.30;99.90;;;;;;6246276;23;20421;-76
2022/04/07 03:27:14;;;;;;;7.53;2.58;;;11.30;99.90;;;;;;6247646;23;20027;-77
2022/04/07 03:29:40;;;;;;;7.20;2.10;;;11.20;99.90;;;;;;6247070;23;20469;-76
2022/04/07 03:32:06;;;;;;;7.88;2.40;;;11.20;99.90;;;;;;6247182;23;20054;-77
2022/04/07 03:34:39;;;;;;;4.07;1.70;;;11.30;99.90;;;;;;6246734;22;20079;-76
2022/04/07 03:37:06;;;;;;;7.53;2.60;;;11.30;99.90;;;;;;6247161;22;20000;-76
2022/04/07 03:39:32;;;;;;;9.82;2.45;;;11.40;99.90;;;;;;6246995;22;20004;-76
2022/04/07 03:41:58;;;;;;;5.18;1.83;;;11.30;99.90;;;;;;6246324;22;20061;-76
2022/04/07 03:44:24;;;;;;;11.02;2.50;;;11.30;99.90;;;;;;6270787;22;20004;-76
2022/04/07 03:46:50;;;;;;;7.00;2.30;;;11.40;99.90;;;;;;6246625;23;20422;-76
2022/04/07 03:49:16;;;;;;;8.75;2.47;;;11.40;99.90;;;;;;6244675;23;20052;-76
2022/04/07 03:51:41;;;;;;;6.47;2.30;;;11.30;99.90;;;;;;6246313;22;20461;-76
2022/04/07 03:54:07;;;;;;;8.70;2.13;;;11.30;99.90;;;;;;6246791;23;20003;-76
2022/04/07 03:56:32;;;;;;;7.78;2.35;;;11.30;99.90;;;;;;6246748;23;20298;-76
2022/04/07 03:58:58;;;;;;;3.22;1.90;;;11.30;99.90;;;;;;6246741;23;20047;-76
2022/04/07 04:01:26;;;;;;;6.47;2.60;;;11.30;99.90;;;;;;6246453;22;20012;-77
2022/04/07 04:03:52;;;;;;;6.38;2.28;;;11.40;99.90;;;;;;6246618;22;19996;-76
2022/04/07 04:06:17;;;;;;;6.20;2.33;;;11.40;99.90;;;;;;6246642;23;20054;-81
2022/04/07 04:08:43;;;;;;;9.60;2.38;;;11.40;99.90;;;;;;6246744;23;20010;-79
2022/04/07 04:11:09;;;;;;;4.90;2.22;;;11.40;99.90;;;;;;6246298;23;20007;-79
2022/04/07 04:13:34;;;;;;;3.17;2.10;;;11.30;99.90;;;;;;6245096;22;20083;-79
2022/04/07 04:16:01;;;;;;;2.92;2.00;;;11.30;99.90;;;;;;6246499;23;19997;-79
2022/04/07 04:18:27;;;;;;;8.48;2.28;;;11.40;99.90;;;;;;6246214;22;20000;-78
2022/04/07 04:20:52;;;;;;;3.60;1.80;;;11.30;99.90;;;;;;6246231;23;20016;-79
2022/04/07 04:23:18;;;;;;;5.95;2.20;;;11.20;99.90;;;;;;6244540;23;20031;-79
2022/04/07 04:25:44;;;;;;;4.05;1.75;;;11.20;99.90;;;;;;6246396;23;20381;-79
2022/04/07 04:28:09;;;;;;;3.45;1.60;;;11.30;99.90;;;;;;6246559;23;20363;-80
2022/04/07 04:30:35;;;;;;;4.22;2.25;;;11.30;99.90;;;;;;6245650;23;20008;-81
2022/04/07 04:33:01;;;;;;;3.53;1.73;;;11.30;99.90;;;;;;6244858;22;20006;-83
2022/04/07 04:35:27;;;;;;;2.63;1.88;;;11.30;99.90;;;;;;6244882;23;20384;-78
2022/04/07 04:37:52;;;;;;;2.42;1.70;;;11.20;99.90;;;;;;6245607;23;20058;-80
2022/04/07 04:40:18;;;;;;;2.60;1.83;;;11.10;99.90;;;;;;6245789;23;20007;-80
2022/04/07 04:42:44;;;;;;;4.47;2.05;;;11.20;99.90;;;;;;6244773;23;20440;-79
2022/04/07 04:45:09;;;;;;;5.88;2.00;;;11.10;99.90;;;;;;6246195;23;20001;-80
2022/04/07 04:47:35;;;;;;;3.58;2.67;;;11.10;99.90;;;;;;6246029;22;20429;-79
2022/04/07 04:50:05;;;;;;;3.65;2.40;;;11.10;99.90;;;;;;6246030;23;20004;-79
2022/04/07 04:52:30;;;;;;;3.75;2.20;;;11.10;99.90;;;;;;6245548;22;20004;-79
2022/04/07 04:54:56;;;;;;;2.67;2.00;;;11.10;99.90;;;;;;6245300;23;20011;-80
2022/04/07 04:57:22;;;;;;;3.55;2.78;;;11.00;99.90;;;;;;6244277;23;20004;-80
2022/04/07 04:59:47;;;;;;;3.88;3.08;;;11.00;99.90;;;;;;6243804;23;20430;-80
2022/04/07 05:02:13;;;;;;;6.40;3.40;;;11.00;99.90;;;;;;6244268;23;20012;-83
2022/04/07 05:04:39;;;;;;;7.15;3.03;;;11.10;99.90;;;;;;6244761;23;20000;-82
2022/04/07 05:07:04;;;;;;;4.80;3.00;;;11.00;99.90;;;;;;6245229;23;20004;-82
2022/04/07 05:09:30;;;;;;;8.23;3.30;;;11.00;99.90;;;;;;6246123;23;20031;-80
2022/04/07 05:11:56;;;;;;;3.97;2.67;;;11.10;99.90;;;;;;6245242;23;20000;-78
2022/04/07 05:14:22;;;;;;;3.53;2.90;;;11.00;99.90;;;;;;6267889;22;20000;-79
2022/04/07 05:16:47;;;;;;;6.25;3.40;;;11.10;99.90;;;;;;6246128;23;20356;-80
2022/04/07 05:19:13;;;;;;;4.68;3.00;;;11.10;99.90;;;;;;6246114;23;20004;-80
2022/04/07 05:21:39;;;;;;;6.20;3.08;;;11.00;99.90;;;;;;6245037;23;20016;-81
2022/04/07 05:24:05;;;;;;;8.40;3.28;;;11.00;99.90;;;;;;6248967;23;20066;-82
2022/04/07 05:26:30;;;;;;;5.80;2.30;;;11.00;99.90;;;;;;6246101;23;20087;-82
2022/04/07 05:28:56;;;;;;;4.85;2.60;;;11.00;99.90;;;;;;6244652;23;20640;-83
2022/04/07 05:31:22;;;;;;;6.70;2.55;;;11.00;99.90;;;;;;6245362;23;20083;-80
2022/04/07 05:33:47;;;;;;;4.72;2.55;;;11.00;99.90;;;;;;6243933;23;19996;-82
2022/04/07 05:36:13;;;;;;;8.57;2.97;;;11.00;99.90;;;;;;6244379;23;20004;-79
2022/04/07 05:38:38;;;;;;;3.67;2.42;;;11.00;99.90;;;;;;6245271;23;20000;-80
2022/04/07 05:41:04;;;;;;;5.72;2.80;;;11.00;99.90;;;;;;6242849;23;20019;-80
2022/04/07 05:43:30;;;;;;;4.55;2.58;;;11.00;99.90;;;;;;6244403;23;20410;-76
2022/04/07 05:45:55;;;;;;;8.60;2.90;;;10.90;99.90;;;;;;6245947;23;20329;-79
2022/04/07 05:48:21;;;;;;;7.18;2.25;;;10.90;99.90;;;;;;6245732;23;20004;-78
2022/04/07 05:50:47;;;;;;;4.90;2.00;;;11.00;99.90;;;;;;6245243;23;20007;-79
2022/04/07 05:53:13;;;;;;;12.18;2.35;;;11.00;99.90;;;;;;6241770;23;20039;-78
2022/04/07 05:55:39;;;;;;;4.05;2.15;;;11.00;99.90;;;;;;6243538;23;20007;-77
2022/04/07 05:58:06;;;;;;;6.18;2.13;;;11.00;99.90;;;;;;6243340;23;20322;-78
2022/04/07 06:00:32;;;;;;;4.97;1.40;;;11.00;99.90;;;;;;6245375;22;20008;-77
2022/04/07 06:02:58;;;;;;;6.63;2.15;;;11.00;99.90;;;;;;6245532;22;20008;-78
2022/04/07 06:05:23;;;;;;;2.65;1.45;;;11.00;99.90;;;;;;6243859;23;19996;-78
2022/04/07 06:07:49;;;;;;;6.03;1.88;;;11.00;99.90;;;;;;6245566;22;20383;-78
2022/04/07 06:10:15;;;;;;;4.85;2.10;;;11.00;99.90;;;;;;6245812;23;20000;-78
2022/04/07 06:12:46;;;;;;;3.03;1.70;;;11.00;99.90;;;;;;6245141;22;20421;-77
2022/04/07 06:15:12;;;;;;;5.22;1.90;;;11.00;99.90;;;;;;6242943;23;20011;-78
2022/04/07 06:17:40;;;;;;;4.85;1.70;;;11.00;99.90;;;;;;6245547;22;20406;-78
2022/04/07 06:20:07;;;;;;;7.32;1.70;;;11.00;99.90;;;;;;6245507;22;20074;-81
2022/04/07 06:22:34;;;;;;;5.40;1.60;;;11.00;99.90;;;;;;6245715;22;20012;-80
2022/04/07 06:25:00;;;;;;;8.10;2.20;;;11.00;99.90;;;;;;6245440;22;20001;-80
2022/04/07 06:27:43;;;;;;;6.97;1.85;;;11.00;99.90;;;;;;6244234;23;20491;-78
2022/04/07 06:30:11;;;;;;;6.10;1.70;;;11.00;99.90;;;;;;6268929;22;20024;-79
2022/04/07 06:32:38;;;;;;;5.88;1.83;;;11.00;99.90;;;;;;6245073;22;20075;-79
2022/04/07 06:35:05;;;;;;;7.80;1.90;;;10.90;99.90;;;;;;6246355;22;20000;-79
2022/04/07 06:37:31;;;;;;;5.07;1.63;;;11.00;99.90;;;;;;6247029;22;20039;-79
2022/04/07 06:40:01;;;;;;;4.45;1.77;;;10.90;99.90;;;;;;6246320;23;20008;-78
2022/04/07 06:42:27;;;;;;;5.43;1.95;;;10.90;99.90;;;;;;6270755;22;20392;-80
2022/04/07 06:44:55;;;;;;;4.07;1.35;;;10.80;99.90;;;;;;6246317;22;20000;-81
2022/04/07 06:47:22;;;;;;;5.22;2.38;;;10.70;99.90;;;;;;6247124;22;20028;-80
2022/04/07 06:49:51;;;;;;;7.40;1.90;;;10.80;99.90;;;;;;6247510;22;20000;-80
2022/04/07 06:52:18;;;;;;;5.75;1.73;;;10.70;99.90;;;;;;6247596;22;20349;-81
2022/04/07 06:54:43;;;;;;;4.75;1.85;;;10.80;99.90;;;;;;6247720;22;20004;-80
2022/04/07 06:57:09;;;;;;;6.63;1.80;;;10.80;99.90;;;;;;6246860;23;20463;-80
2022/04/07 06:59:35;;;;;;;6.53;2.00;;;10.80;99.90;;;;;;6246654;23;20008;-79
2022/04/07 07:02:00;;;;;;;5.55;2.10;;;10.80;99.90;;;;;;6246707;23;20008;-79
2022/04/07 07:04:26;;;;;;;5.75;1.88;;;10.90;99.90;;;;;;6247077;23;20020;-80
2022/04/07 07:06:52;;;;;;;3.90;1.83;;;10.90;99.90;;;;;;6247443;23;20310;-81
2022/04/07 07:09:17;;;;;;;6.15;2.00;;;10.90;99.90;;;;;;6246541;23;20329;-82
2022/04/07 07:11:43;;;;;;;3.53;2.13;;;10.80;99.90;;;;;;6246832;23;20007;-80
2022/04/07 07:14:09;;;;;;;3.55;2.22;;;10.80;99.90;;;;;;6247014;23;20004;-79
2022/04/07 07:16:34;;;;;;;3.83;1.90;;;10.90;99.90;;;;;;6247045;23;20009;-79
2022/04/07 07:19:00;;;;;;;4.25;1.70;;;10.80;99.90;;;;;;6246546;23;19996;-80
2022/04/07 07:21:25;;;;;;;5.28;2.60;;;10.80;99.90;;;;;;6244113;23;20095;-80
2022/04/07 07:23:51;;;;;;;4.43;2.35;;;10.90;99.90;;;;;;6246841;22;19996;-81
2022/04/07 07:26:17;;;;;;;4.10;2.38;;;10.90;99.90;;;;;;6245334;23;20044;-81
2022/04/07 07:28:42;;;;;;;3.80;2.03;;;10.90;99.90;;;;;;6244789;23;20000;-82
2022/04/07 07:31:08;;;;;;;6.68;1.77;;;10.90;99.90;;;;;;6244455;23;20003;-82
2022/04/07 07:33:34;;;;;;;3.00;2.30;;;11.00;99.90;;;;;;6246254;23;20437;-83
2022/04/07 07:36:00;;;;;;;3.60;2.40;;;11.10;99.90;;;;;;6246537;22;20028;-79
2022/04/07 07:38:25;;;;;;;3.00;1.95;;;11.10;99.90;;;;;;6246303;23;20000;-81
2022/04/07 07:40:51;;;;;;;3.38;1.77;;;11.20;99.90;;;;;;6244618;23;20004;-80
2022/04/07 07:43:17;;;;;;;3.78;1.75;;;11.30;99.90;;;;;;6245370;23;20004;-82
2022/04/07 07:45:42;;;;;;;2.92;2.10;;;11.30;99.90;;;;;;6246688;23;19996;-81
2022/04/07 07:48:08;;;;;;;5.00;2.45;;;11.30;99.90;;;;;;6251357;23;20000;-80
2022/04/07 07:50:34;;;;;;;4.10;1.70;;;11.30;99.90;;;;;;6249550;23;20330;-78
2022/04/07 07:52:59;;;;;;;3.00;2.00;;;11.30;99.90;;;;;;6246952;23;20479;-79
2022/04/07 07:55:25;;;;;;;3.13;2.22;;;11.40;99.90;;;;;;6246407;23;20483;-79
2022/04/07 07:57:51;;;;;;;5.03;2.35;;;11.50;99.90;;;;;;6246997;23;20000;-79
2022/04/07 08:00:17;;;;;;;4.18;1.85;;;11.50;99.90;;;;;;6244338;23;20023;-80
2022/04/07 08:02:43;;;;;;;2.60;1.98;;;11.40;99.90;;;;;;6242239;22;20012;-80
2022/04/07 08:05:10;;;;;;;2.85;1.90;;;11.40;99.90;;;;;;6246090;22;20005;-80
2022/04/07 08:07:41;;;;;;;2.40;1.40;;;11.50;99.90;;;;;;6245706;22;20004;-80
2022/04/07 08:10:07;;;;;;;4.18;1.50;;;11.50;99.90;;;;;;6246059;22;19996;-80
2022/04/07 08:12:32;;;;;;;2.55;1.50;;;11.50;99.90;;;;;;6246368;22;20433;-80
2022/04/07 08:14:58;;;;;;;4.10;1.55;;;11.50;99.90;;;;;;6240805;23;20007;-80
2022/04/07 08:17:24;;;;;;;2.83;1.80;;;11.60;99.90;;;;;;6244701;23;20004;-79
2022/04/07 08:19:50;;;;;;;6.95;2.35;;;11.50;99.90;;;;;;6242828;23;20008;-79
2022/04/07 08:22:16;;;;;;;1.88;1.02;;;11.50;99.90;;;;;;6245042;23;20019;-78
2022/04/07 08:24:42;;;;;;;2.05;1.00;;;11.30;99.90;;;;;;6242556;23;19996;-80
2022/04/07 08:27:07;;;;;;;2.20;0.82;;;11.20;99.90;;;;;;6244695;23;20079;-81
2022/04/07 08:29:34;;;;;;;1.58;1.02;;;11.10;99.90;;;;;;6244303;22;20004;-80
2022/04/07 08:32:00;;;;;;;4.32;0.90;;;11.10;99.90;;;;;;6244311;22;20027;-84
2022/04/07 08:34:25;;;;;;;1.73;1.02;;;11.10;99.90;;;;;;6244651;22;20318;-80
2022/04/07 08:36:52;;;;;;;1.35;1.25;;;11.10;99.90;;;;;;6242533;23;20007;-80
2022/04/07 08:39:18;;;;;;;4.40;2.05;;;11.20;99.90;;;;;;6245040;22;19996;-79
2022/04/07 08:41:45;;;;;;;1.88;1.33;;;11.10;99.90;;;;;;6242831;22;20020;-80
2022/04/07 08:44:12;;;;;;;1.63;1.23;;;11.10;99.90;;;;;;6244454;22;20046;-82
2022/04/07 08:46:39;;;;;;;0.80;0.80;;;11.20;99.90;;;;;;6244204;22;20075;-83
2022/04/07 08:49:07;;;;;;;1.58;1.20;;;11.10;99.90;;;;;;6245200;22;20468;-84
2022/04/07 08:51:33;;;;;;;4.85;1.02;;;11.10;99.90;;;;;;6245315;22;20011;-79
2022/04/07 08:54:00;;;;;;;3.10;0.95;;;11.10;99.90;;;;;;6244394;22;20001;-79
2022/04/07 08:56:25;;;;;;;0.95;0.90;;;11.10;99.90;;;;;;6243662;22;20123;-79
2022/04/07 08:58:53;;;;;;;3.10;0.80;;;11.30;99.90;;;;;;6245573;23;20063;-78
2022/04/07 09:01:19;;;;;;;2.00;1.10;;;11.40;99.90;;;;;;6244128;22;20028;-87
2022/04/07 09:03:45;;;;;;;1.25;1.10;;;11.50;99.90;;;;;;6246074;22;20004;-84
2022/04/07 09:06:13;;;;;;;1.60;1.10;;;11.50;99.90;;;;;;6244248;22;20015;-82
2022/04/07 09:08:40;;;;;;;0.70;0.70;;;11.50;99.90;;;;;;6244976;22;20008;-83
2022/04/07 09:11:08;;;;;;;1.17;0.80;;;11.60;99.90;;;;;;6245967;22;20004;-80
2022/04/07 09:13:39;;;;;;;2.42;1.13;;;11.80;99.90;;;;;;6243190;22;20433;-81
2022/04/07 09:16:13;;;;;;;1.45;0.95;;;11.90;99.90;;;;;;6269072;22;20004;-80
2022/04/07 09:18:44;;;;;;;2.03;0.90;;;11.90;99.90;;;;;;6245746;22;20000;-79
2022/04/07 09:21:28;;;;;;;2.50;1.35;;;12.00;99.90;;;;;;6243199;22;20259;-84
2022/04/07 09:23:55;;;;;;;2.85;1.30;;;12.10;99.90;;;;;;6245252;22;20380;-80
2022/04/07 09:26:21;;;;;;;1.40;1.27;;;12.10;99.90;;;;;;6245480;22;20050;-79
2022/04/07 09:28:46;;;;;;;3.45;1.30;;;12.30;99.90;;;;;;6243015;22;20000;-78
2022/04/07 09:31:13;;;;;;;4.43;1.45;;;12.40;99.90;;;;;;6244842;23;20035;-79
2022/04/07 09:33:39;;;;;;;1.55;1.20;;;12.50;99.90;;;;;;6245239;22;20008;-79
2022/04/07 09:36:07;;;;;;;1.55;1.05;;;12.50;99.90;;;;;;6242055;23;20000;-78
2022/04/07 09:38:35;;;;;;;1.75;1.05;;;12.40;99.90;;;;;;6244530;22;20472;-80
2022/04/07 09:41:09;;;;;;;1.60;1.08;;;12.50;99.90;;;;;;6245461;23;20011;-79
2022/04/07 09:43:50;;;;;;;3.08;1.00;;;12.60;99.90;;;;;;6245438;22;20004;-78
2022/04/07 09:46:20;;;;;;;4.43;1.10;;;12.80;99.90;;;;;;6243299;23;20007;-76
2022/04/07 09:49:01;;;;;;;2.00;1.13;;;12.90;99.90;;;;;;6244724;22;20310;-80
2022/04/07 09:51:27;;;;;;;1.45;1.17;;;13.10;99.90;;;;;;6244751;23;20111;-79
2022/04/07 09:53:57;;;;;;;2.13;1.00;;;13.20;99.90;;;;;;6243035;22;20004;-79
2022/04/07 09:56:28;;;;;;;1.35;0.82;;;13.40;99.90;;;;;;6244548;22;20000;-78
2022/04/07 09:58:55;;;;;;;2.47;0.77;;;13.30;99.90;;;;;;6245334;22;20015;-78
2022/04/07 10:01:22;;;;;;;2.83;0.95;;;13.40;99.90;;;;;;6245606;22;20107;-79
2022/04/07 10:03:50;;;;;;;2.40;0.70;;;13.60;99.90;;;;;;6246206;22;20000;-77
2022/04/07 10:06:17;;;;;;;0.80;0.55;;;13.70;99.90;;;;;;6248031;22;19996;-77
2022/04/07 10:08:42;;;;;;;2.35;0.80;;;13.80;99.90;;;;;;6254595;22;20008;-80
2022/04/07 10:11:08;;;;;;;3.00;0.90;;;13.90;99.90;;;;;;6248388;22;20386;-78
2022/04/07 10:13:38;;;;;;;2.63;0.90;;;13.90;99.90;;;;;;6248197;22;20035;-80
2022/04/07 10:16:04;;;;;;;3.20;0.70;;;14.10;99.90;;;;;;6248994;23;20115;-78
2022/04/07 10:18:35;;;;;;;1.67;0.98;;;14.10;99.90;;;;;;6249040;22;20321;-78
2022/04/07 10:21:04;;;;;;;3.22;0.88;;;14.30;99.90;;;;;;6248737;22;20449;-77
2022/04/07 10:23:53;;;;;;;2.88;0.65;;;14.50;99.90;;;;;;6247342;22;20000;-77
2022/04/07 10:26:21;;;;;;;3.67;0.65;;;14.50;99.90;;;;;;6247714;23;20058;-78
2022/04/07 10:28:54;;;;;;;2.05;0.73;;;14.50;99.90;;;;;;6245643;23;20027;-78
2022/04/07 10:31:22;;;;;;;3.63;0.88;;;14.70;99.90;;;;;;6249092;22;20441;-76
2022/04/07 10:33:48;;;;;;;2.97;1.17;;;15.00;99.90;;;;;;6249002;22;20027;-77
2022/04/07 10:36:21;;;;;;;2.25;0.98;;;15.20;99.90;;;;;;6248695;22;20081;-76
2022/04/07 10:38:51;;;;;;;3.22;0.95;;;15.30;99.90;;;;;;6247996;22;20413;-76
2022/04/07 10:41:45;;;;;;;3.55;1.05;;;15.20;99.90;;;;;;6248132;22;20005;-76
2022/04/07 10:44:12;;;;;;;2.42;0.82;;;15.30;99.90;;;;;;6248589;22;20002;-76
2022/04/07 10:46:37;;;;;;;5.70;1.52;;;15.50;99.90;;;;;;6248786;23;20001;-77
2022/04/07 10:49:08;;;;;;;3.40;1.10;;;15.70;99.90;;;;;;6247583;23;20034;-78
2022/04/07 10:51:42;;;;;;;3.58;1.00;;;15.70;99.90;;;;;;6248756;22;20004;-77
2022/04/07 10:54:08;;;;;;;5.97;1.05;;;15.90;99.90;;;;;;6248638;22;20064;-77
2022/04/07 10:56:34;;;;;;;5.82;1.00;;;15.90;99.90;;;;;;6249012;23;20031;-76
2022/04/07 10:59:27;;;;;;;4.97;1.45;;;15.60;99.90;;;;;;6247419;22;20426;-76
2022/04/07 11:02:11;;;;;;;4.80;1.40;;;15.60;99.90;;;;;;6244523;22;20342;-77
2022/04/07 11:04:37;;;;;;;3.45;1.00;;;15.60;99.90;;;;;;6247872;22;20003;-77
2022/04/07 11:07:15;;;;;;;4.03;0.95;;;15.40;99.90;;;;;;6248078;22;19996;-76
2022/04/07 11:09:53;;;;;;;5.18;1.23;;;15.50;99.90;;;;;;6248420;23;20007;-77
2022/04/07 11:12:24;;;;;;;3.08;1.15;;;15.10;99.90;;;;;;6247455;23;20000;-77
2022/04/07 11:14:52;;;;;;;2.47;1.30;;;15.00;99.90;;;;;;6248423;22;20022;-77
2022/04/07 11:17:33;;;;;;;4.70;1.38;;;15.00;99.90;;;;;;6248482;22;20083;-77
2022/04/07 11:20:05;;;;;;;4.88;1.05;;;14.90;99.90;;;;;;6246657;23;20008;-78
2022/04/07 11:22:52;;;;;;;4.55;0.98;;;15.10;99.90;;;;;;6246530;22;20012;-77
2022/04/07 11:25:38;;;;;;;3.80;1.48;;;15.00;99.90;;;;;;6242027;22;20055;-77
2022/04/07 11:28:15;;;;;;;4.43;1.63;;;15.20;99.90;;;;;;6246272;22;20004;-78
2022/04/07 11:30:53;;;;;;;5.20;2.15;;;14.90;99.90;;;;;;6246007;23;20007;-76
2022/04/07 11:33:28;;;;;;;5.68;1.50;;;14.90;99.90;;;;;;6246278;22;20000;-75
2022/04/07 11:35:59;;;;;;;4.80;1.30;;;14.90;99.90;;;;;;6242821;23;20106;-75
2022/04/07 11:38:54;;;;;;;5.20;1.45;;;14.70;99.90;;;;;;6244522;23;20685;-76
2022/04/07 11:41:19;;;;;;;7.53;1.40;;;14.70;99.90;;;;;;6240780;23;20080;-75
2022/04/07 11:43:46;;;;;;;6.30;1.45;;;14.70;99.90;;;;;;6243647;23;20026;-76
2022/04/07 11:46:30;;;;;;;3.97;1.10;;;14.60;99.90;;;;;;6242988;22;20000;-76
2022/04/07 11:48:57;;;;;;;6.28;1.08;;;14.80;99.90;;;;;;6244378;22;20302;-76
2022/04/07 11:51:24;;;;;;;5.25;1.52;;;14.60;99.90;;;;;;6244256;22;20011;-76
2022/04/07 11:53:55;;;;;;;6.20;1.30;;;14.60;99.90;;;;;;6246172;22;20023;-75
2022/04/07 11:56:25;;;;;;;3.70;1.42;;;14.40;99.90;;;;;;6245402;22;20000;-75
2022/04/07 11:59:11;;;;;;;5.07;1.20;;;14.40;99.90;;;;;;6245105;22;20008;-76
2022/04/07 12:01:46;;;;;;;6.38;1.50;;;14.50;99.90;;;;;;6245134;22;20030;-78
2022/04/07 12:04:13;;;;;;;5.82;1.50;;;14.30;99.90;;;;;;6245783;22;20027;-76
2022/04/07 12:06:41;;;;;;;6.68;1.67;;;14.30;99.90;;;;;;6244400;22;19996;-76
2022/04/07 12:09:07;;;;;;;9.30;2.03;;;14.20;99.90;;;;;;6243916;23;20027;-76
2022/04/07 12:11:35;;;;;;;15.40;3.38;;;13.90;99.90;;;;;;6244057;22;20004;-76
2022/04/07 12:14:06;;;;;;;8.57;2.30;;;13.60;99.90;;;;;;6246562;22;20000;-77
2022/04/07 12:16:32;;;;;;;10.52;2.63;;;13.70;99.90;;;;;;6245591;22;20006;-78
2022/04/07 12:19:04;;;;;;;11.65;2.67;;;13.70;99.90;;;;;;6245931;22;20000;-78
2022/04/07 12:21:51;;;;;;;12.07;2.65;;;13.70;99.90;;;;;;6246873;22;20306;-77
2022/04/07 12:24:17;;;;;;;10.07;2.60;;;13.80;99.90;;;;;;6271447;22;20455;-76
2022/04/07 12:26:50;;;;;;;6.10;2.72;;;13.60;99.90;;;;;;6245834;23;20071;-75
2022/04/07 12:29:21;;;;;;;9.98;2.25;;;13.50;99.90;;;;;;6245669;22;20008;-76
2022/04/07 12:32:07;;;;;;;6.30;2.20;;;13.40;99.90;;;;;;6245984;22;20008;-75
2022/04/07 12:34:34;;;;;;;10.25;2.90;;;13.50;99.90;;;;;;6246502;22;19996;-75
2022/04/07 12:37:00;;;;;;;14.43;3.67;;;13.50;99.90;;;;;;6245729;22;20004;-75
2022/04/07 12:39:34;;;;;;;13.80;2.95;;;13.60;99.90;;;;;;6245890;22;20372;-77
2022/04/07 12:42:10;;;;;;;10.75;2.80;;;13.60;99.90;;;;;;6246204;22;20087;-76
2022/04/07 12:44:38;;;;;;;9.55;2.25;;;13.40;99.90;;;;;;6245240;22;20075;-75
2022/04/07 12:47:18;;;;;;;7.88;2.42;;;13.40;99.90;;;;;;6269495;22;20014;-77
2022/04/07 12:49:58;;;;;;;9.23;2.67;;;13.60;99.90;;;;;;6244467;22;20030;-78